Terminal Aerodrome Forecast
Issued by NWS Austin/San Antonio, TX

Current Version | Previous Version | Text Only | Print | Product List | Glossary On
Versions: 1 2 3 4 5 6 7 8 9 10 11 12 13 14 15 16 17 18 19 20 21 22 23 24 25 26 27 28 29 30 31 32 33 34 35 36 37 38 39 40 41 42 43 44 45 46 47 48 49 50
000
FTUS44 KEWX 181329 AAK
TAFAUS
TAF AMD
KAUS 181329Z 1813/1918 VRB03KT 3SM BR VCSH BKN005 OVC016
     FM181500 35006KT 6SM BR VCSH BKN011 OVC100
     FM181600 36016KT P6SM BKN035
     FM181800 36016KT P6SM FEW035
     FM190100 01012KT P6SM SKC=

USA.gov is the U.S. government's official web portal to all federal, state and local government web resources and services.